createdAt,value
2016-11-25T00:00:32.129Z,94.23
2016-11-25T00:01:48.567Z,93.94
2016-11-25T00:03:03.509Z,93.65
2016-11-25T00:04:19.807Z,94.51
2016-11-25T00:05:34.927Z,94.32
2016-11-25T00:06:51.479Z,94.51
2016-11-25T00:08:06.428Z,94.51
2016-11-25T00:09:19.845Z,94.13
2016-11-25T00:10:33.311Z,94.13
2016-11-25T00:11:48.044Z,94.51
2016-11-25T00:13:04.385Z,94.23
2016-11-25T00:14:19.336Z,94.42
2016-11-25T00:15:36.081Z,94.32
2016-11-25T00:16:51.087Z,94.32
2016-11-25T00:18:05.897Z,94.89
2016-11-25T00:19:20.734Z,94.23
2016-11-25T00:20:32.826Z,94.32
2016-11-25T00:21:47.522Z,94.79
2016-11-25T00:23:02.253Z,94.89
2016-11-25T00:24:17.885Z,94.6
2016-11-25T00:25:33.330Z,94.7
2016-11-25T00:26:48.388Z,95.07
2016-11-25T00:28:04.411Z,95.45
2016-11-25T00:29:18.847Z,95.17
2016-11-25T00:30:33.463Z,95.07
2016-11-25T00:31:45.406Z,95.45
2016-11-25T00:32:59.876Z,95.26
2016-11-25T00:34:13.275Z,94.98
2016-11-25T00:35:26.898Z,94.6
2016-11-25T00:36:43.217Z,94.7
2016-11-25T00:37:55.628Z,95.36
2016-11-25T00:39:09.108Z,95.26
2016-11-25T00:40:22.575Z,95.07
2016-11-25T00:41:35.966Z,94.98
2016-11-25T00:42:52.283Z,94.7
2016-11-25T00:44:07.385Z,94.98
2016-11-25T00:45:22.330Z,95.07
2016-11-25T00:46:34.546Z,95.17
2016-11-25T00:47:50.321Z,95.45
2016-11-25T00:49:05.377Z,95.45
2016-11-25T00:50:20.347Z,95.36
2016-11-25T00:51:36.207Z,95.21
2016-11-25T00:52:51.276Z,95.36
2016-11-25T00:54:06.023Z,95.07
2016-11-25T00:55:19.108Z,95.74
2016-11-25T00:56:35.749Z,95.64
2016-11-25T00:57:50.736Z,95.45
2016-11-25T00:59:07.431Z,95.64
2016-11-25T01:00:23.503Z,95.21
2016-11-25T01:01:36.739Z,95.31
2016-11-25T01:02:51.250Z,95.45
2016-11-25T01:04:06.889Z,95.45
2016-11-25T01:05:21.816Z,95.64
2016-11-25T01:06:35.269Z,95.69
2016-11-25T01:07:51.012Z,95.4
2016-11-25T01:09:01.658Z,95.5
2016-11-25T01:10:16.747Z,95.97
2016-11-25T01:11:31.346Z,95.97
2016-11-25T01:12:45.832Z,96.07
2016-11-25T01:14:01.043Z,95.97
2016-11-25T01:15:15.569Z,96.26
2016-11-25T01:16:29.904Z,96.26
2016-11-25T01:17:44.929Z,95.97
2016-11-25T01:18:58.973Z,96.26
2016-11-25T01:20:14.221Z,95.97
2016-11-25T01:21:26.004Z,96.26
2016-11-25T01:22:41.794Z,96.07
2016-11-25T01:23:56.560Z,96.07
2016-11-25T01:25:11.402Z,95.97
2016-11-25T01:26:26.658Z,95.88
2016-11-25T01:27:42.157Z,96.07
2016-11-25T01:28:57.410Z,96.26
2016-11-25T01:30:11.979Z,96.35
2016-11-25T01:31:27.866Z,96.45
2016-11-25T01:32:41.041Z,96.54
2016-11-25T01:33:54.578Z,96.64
2016-11-25T01:35:11.012Z,96.64
2016-11-25T01:36:27.173Z,96.26
2016-11-25T01:37:40.501Z,96.35
2016-11-25T01:38:55.852Z,96.35
2016-11-25T01:40:09.248Z,96.16
2016-11-25T01:41:25.581Z,96.35
2016-11-25T01:42:40.652Z,96.54
2016-11-25T01:43:56.160Z,96.45
2016-11-25T01:45:12.891Z,96.64
2016-11-25T01:46:27.577Z,96.54
2016-11-25T01:47:41.254Z,96.26
2016-11-25T01:48:56.293Z,96.64
2016-11-25T01:50:12.773Z,96.54
2016-11-25T01:51:27.375Z,96.35
2016-11-25T01:52:42.754Z,96.26
2016-11-25T01:53:57.677Z,96.64
2016-11-25T01:55:12.657Z,96.92
2016-11-25T01:56:27.506Z,96.54
2016-11-25T01:57:42.807Z,96.64
2016-11-25T01:58:59.276Z,96.45
2016-11-25T02:00:13.701Z,96.26
2016-11-25T02:01:30.657Z,96.45
2016-11-25T02:02:46.588Z,96.64
2016-11-25T02:04:02.952Z,96.78
2016-11-25T02:05:18.998Z,96.83
2016-11-25T02:06:32.289Z,96.97
2016-11-25T02:07:46.832Z,96.5
2016-11-25T02:08:58.600Z,97.16
2016-11-25T02:10:14.641Z,96.78
2016-11-25T02:11:30.581Z,96.88
2016-11-25T02:12:45.851Z,96.4
2016-11-25T02:14:00.218Z,96.97
2016-11-25T02:15:14.979Z,96.78
2016-11-25T02:16:31.028Z,97.25
2016-11-25T02:17:46.115Z,97.25
2016-11-25T02:19:02.877Z,97.06
2016-11-25T02:20:19.110Z,97.16
2016-11-25T02:21:33.843Z,97.16
2016-11-25T02:22:48.280Z,97.91
2016-11-25T02:24:03.789Z,97.72
2016-11-25T02:25:16.699Z,97.34
2016-11-25T02:26:31.386Z,97.44
2016-11-25T02:27:47.345Z,97.72
2016-11-25T02:29:02.505Z,97.63
2016-11-25T02:30:15.366Z,98.01
2016-11-25T02:31:28.783Z,97.63
2016-11-25T02:32:45.067Z,97.72
2016-11-25T02:34:01.938Z,97.63
2016-11-25T02:35:15.352Z,97.53
2016-11-25T02:36:30.002Z,97.58
2016-11-25T02:37:44.551Z,97.63
2016-11-25T02:39:01.038Z,97.72
2016-11-25T02:40:18.042Z,97.44
2016-11-25T02:41:31.127Z,97.44
2016-11-25T02:42:47.296Z,97.44
2016-11-25T02:44:02.020Z,97.63
2016-11-25T02:45:17.097Z,97.63
2016-11-25T02:46:32.195Z,97.63
2016-11-25T02:47:48.237Z,97.82
2016-11-25T02:49:01.483Z,97.53
2016-11-25T02:50:18.455Z,97.82
2016-11-25T02:51:31.918Z,97.44
2016-11-25T02:52:48.320Z,98.39
2016-11-25T02:54:02.822Z,97.72
2016-11-25T02:55:18.540Z,97.63
2016-11-25T02:56:31.751Z,97.82
2016-11-25T02:57:44.503Z,98.01
2016-11-25T02:59:01.117Z,97.82
2016-11-25T03:00:15.946Z,97.72
2016-11-25T03:01:31.818Z,97.91
2016-11-25T03:02:44.720Z,97.72
2016-11-25T03:03:59.829Z,97.72
2016-11-25T03:05:14.447Z,97.63
2016-11-25T03:06:28.723Z,97.91
2016-11-25T03:07:43.404Z,97.72
2016-11-25T03:08:58.431Z,98.01
2016-11-25T03:10:11.518Z,97.34
2016-11-25T03:11:25.501Z,97.44
2016-11-25T03:12:39.852Z,97.91
2016-11-25T03:13:54.791Z,97.63
2016-11-25T03:15:08.931Z,97.44
2016-11-25T03:16:19.304Z,97.72
2016-11-25T03:17:33.516Z,97.63
2016-11-25T03:18:49.195Z,97.25
2016-11-25T03:20:03.613Z,97.72
2016-11-25T03:21:18.846Z,97.44
2016-11-25T03:22:33.129Z,97.63
2016-11-25T03:23:47.810Z,97.44
2016-11-25T03:25:02.439Z,97.82
2016-11-25T03:26:16.961Z,97.63
2016-11-25T03:27:31.510Z,97.34
2016-11-25T03:28:46.471Z,97.34
2016-11-25T03:30:00.836Z,97.53
2016-11-25T03:31:15.130Z,97.63
2016-11-25T03:32:30.124Z,97.72
2016-11-25T03:33:45.349Z,98.01
2016-11-25T03:35:00.184Z,97.63
2016-11-25T03:36:15.303Z,97.72
2016-11-25T03:37:29.726Z,97.44
2016-11-25T03:38:44.955Z,97.63
2016-11-25T03:40:01.248Z,97.82
2016-11-25T03:41:15.913Z,98.29
2016-11-25T03:42:32.403Z,97.44
2016-11-25T03:43:48.455Z,97.63
2016-11-25T03:45:03.210Z,97.63
2016-11-25T03:46:20.020Z,97.53
2016-11-25T03:47:34.631Z,97.72
2016-11-25T03:48:51.392Z,97.63
2016-11-25T03:50:06.495Z,97.25
2016-11-25T03:51:22.394Z,97.82
2016-11-25T03:52:35.738Z,97.91
2016-11-25T03:53:48.881Z,98.39
2016-11-25T03:55:05.454Z,98.01
2016-11-25T03:56:22.660Z,98.1
2016-11-25T03:57:36.921Z,98.01
2016-11-25T03:58:50.402Z,98.01
2016-11-25T04:00:03.792Z,98.01
2016-11-25T04:01:17.322Z,98.29
2016-11-25T04:02:32.425Z,98.39
2016-11-25T04:03:48.530Z,98.1
2016-11-25T04:05:03.205Z,98.1
2016-11-25T04:06:17.568Z,97.53
2016-11-25T04:07:30.584Z,97.25
2016-11-25T04:08:44.027Z,97.53
2016-11-25T04:10:00.404Z,98.39
2016-11-25T04:11:16.724Z,98.1
2016-11-25T04:12:31.800Z,97.53
2016-11-25T04:13:46.281Z,97.58
2016-11-25T04:15:02.321Z,97.63
2016-11-25T04:16:18.196Z,97.34
2016-11-25T04:17:34.368Z,97.67
2016-11-25T04:18:50.966Z,97.49
2016-11-25T04:20:04.176Z,97.2
2016-11-25T04:21:17.155Z,97.63
2016-11-25T04:22:33.481Z,97.63
2016-11-25T04:23:49.663Z,97.67
2016-11-25T04:25:05.447Z,97.63
2016-11-25T04:26:19.972Z,97.44
2016-11-25T04:27:36.051Z,97.34
2016-11-25T04:28:52.054Z,97.63
2016-11-25T04:30:05.640Z,97.72
2016-11-25T04:31:20.412Z,97.86
2016-11-25T04:32:36.779Z,97.63
2016-11-25T04:33:53.370Z,97.39
2016-11-25T04:35:09.311Z,97.3
2016-11-25T04:36:21.312Z,97.67
2016-11-25T04:37:31.700Z,97.67
2016-11-25T04:38:47.601Z,97.96
2016-11-25T04:39:58.003Z,97.67
2016-11-25T04:41:13.886Z,97.67
2016-11-25T04:42:28.405Z,97.67
2016-11-25T04:43:43.179Z,97.58
2016-11-25T04:44:57.915Z,97.86
2016-11-25T04:46:12.767Z,96.83
2016-11-25T04:47:28.535Z,97.11
2016-11-25T04:48:44.578Z,96.92
2016-11-25T04:50:00.729Z,97.3
2016-11-25T04:51:14.138Z,97.11
2016-11-25T04:52:30.551Z,96.64
2016-11-25T04:53:45.203Z,97.3
2016-11-25T04:55:01.174Z,96.92
2016-11-25T04:56:12.957Z,97.2
2016-11-25T04:57:29.568Z,97.11
2016-11-25T04:58:44.193Z,97.11
2016-11-25T04:59:58.651Z,97.11
2016-11-25T05:01:14.979Z,97.11
2016-11-25T05:02:31.952Z,96.92
2016-11-25T05:03:46.985Z,96.92
2016-11-25T05:05:02.887Z,97.2
2016-11-25T05:06:18.843Z,97.01
2016-11-25T05:07:35.803Z,97.11
2016-11-25T05:08:48.047Z,97.11
2016-11-25T05:10:02.981Z,97.01
2016-11-25T05:11:18.259Z,97.01
2016-11-25T05:12:33.513Z,97.11
2016-11-25T05:13:47.567Z,97.96
2016-11-25T05:15:03.984Z,97.67
2016-11-25T05:16:20.040Z,97.77
2016-11-25T05:17:34.338Z,97.67
2016-11-25T05:18:50.884Z,97.58
2016-11-25T05:20:07.215Z,97.67
2016-11-25T05:21:22.132Z,97.67
2016-11-25T05:22:35.600Z,97.58
2016-11-25T05:23:49.328Z,98.05
2016-11-25T05:25:05.769Z,97.67
2016-11-25T05:26:20.498Z,97.67
2016-11-25T05:27:32.756Z,97.67
2016-11-25T05:28:48.731Z,97.86
2016-11-25T05:30:05.175Z,97.67
2016-11-25T05:31:21.220Z,97.58
2016-11-25T05:32:35.909Z,97.49
2016-11-25T05:33:51.142Z,97.58
2016-11-25T05:35:04.611Z,97.39
2016-11-25T05:36:20.660Z,97.39
2016-11-25T05:37:35.119Z,97.39
2016-11-25T05:38:50.058Z,97.67
2016-11-25T05:40:04.729Z,97.96
2016-11-25T05:41:21.120Z,97.58
2016-11-25T05:42:35.895Z,97.77
2016-11-25T05:43:52.034Z,97.77
2016-11-25T05:45:08.806Z,97.49
2016-11-25T05:46:25.158Z,97.67
2016-11-25T05:47:38.593Z,97.2
2016-11-25T05:48:54.883Z,97.11
2016-11-25T05:50:10.614Z,97.01
2016-11-25T05:51:24.802Z,96.73
2016-11-25T05:52:39.128Z,96.73
2016-11-25T05:53:55.457Z,96.92
2016-11-25T05:55:12.274Z,97.11
2016-11-25T05:56:25.700Z,96.92
2016-11-25T05:57:42.511Z,96.92
2016-11-25T05:58:58.237Z,96.73
2016-11-25T06:00:13.342Z,96.92
2016-11-25T06:01:26.669Z,96.83
2016-11-25T06:02:41.785Z,97.11
2016-11-25T06:03:58.285Z,97.3
2016-11-25T06:05:11.323Z,97.3
2016-11-25T06:06:27.818Z,97.01
2016-11-25T06:07:44.117Z,97.01
2016-11-25T06:09:00.317Z,97.86
2016-11-25T06:10:15.462Z,97.49
2016-11-25T06:11:29.674Z,97.49
2016-11-25T06:12:43.036Z,97.58
2016-11-25T06:13:59.505Z,97.86
2016-11-25T06:15:13.778Z,96.92
2016-11-25T06:16:28.466Z,97.11
2016-11-25T06:17:44.631Z,97.11
2016-11-25T06:18:59.828Z,96.92
2016-11-25T06:20:15.464Z,96.73
2016-11-25T06:21:28.268Z,97.01
2016-11-25T06:22:40.795Z,96.83
2016-11-25T06:23:57.691Z,97.11
2016-11-25T06:25:11.949Z,96.88
2016-11-25T06:26:24.754Z,96.26
2016-11-25T06:27:40.801Z,96.4
2016-11-25T06:28:54.399Z,96.59
2016-11-25T06:30:06.248Z,96.16
2016-11-25T06:31:20.953Z,96.26
2016-11-25T06:32:36.033Z,96.31
2016-11-25T06:33:51.705Z,96.07
2016-11-25T06:35:04.480Z,95.88
2016-11-25T06:36:19.436Z,96.16
2016-11-25T06:37:34.213Z,96.07
2016-11-25T06:38:50.560Z,96.21
2016-11-25T06:40:03.769Z,95.64
2016-11-25T06:41:20.077Z,95.74
2016-11-25T06:42:35.157Z,95.97
2016-11-25T06:43:50.447Z,96.02
2016-11-25T06:45:03.904Z,96.5
2016-11-25T06:46:20.396Z,96.31
2016-11-25T06:47:34.847Z,95.74
2016-11-25T06:48:49.910Z,95.74
2016-11-25T06:50:02.191Z,95.45
2016-11-25T06:51:19.036Z,95.07
2016-11-25T06:52:32.408Z,95.45
2016-11-25T06:53:49.689Z,95.07
2016-11-25T06:55:04.520Z,94.89
2016-11-25T06:56:19.547Z,94.7
2016-11-25T06:57:34.288Z,94.6
2016-11-25T06:58:49.705Z,95.07
2016-11-25T07:00:05.444Z,95.07
2016-11-25T07:01:21.340Z,95.36
2016-11-25T07:02:35.084Z,95.26
2016-11-25T07:03:48.481Z,95.26
2016-11-25T07:05:04.640Z,94.98
2016-11-25T07:06:20.718Z,94.98
2016-11-25T07:07:35.691Z,94.79
2016-11-25T07:08:51.728Z,94.79
2016-11-25T07:10:06.859Z,94.79
2016-11-25T07:11:23.445Z,94.89
2016-11-25T07:12:38.316Z,95.07
2016-11-25T07:13:51.856Z,95.07
2016-11-25T07:15:06.923Z,94.89
2016-11-25T07:16:21.854Z,94.98
2016-11-25T07:17:35.324Z,94.89
2016-11-25T07:18:50.008Z,94.51
2016-11-25T07:20:03.987Z,94.42
2016-11-25T07:21:18.675Z,94.98
2016-11-25T07:22:34.855Z,94.89
2016-11-25T07:23:49.704Z,94.98
2016-11-25T07:25:06.036Z,94.79
2016-11-25T07:26:21.101Z,95.36
2016-11-25T07:27:37.395Z,94.6
2016-11-25T07:28:51.920Z,94.6
2016-11-25T07:30:05.953Z,94.6
2016-11-25T07:31:19.602Z,94.79
2016-11-25T07:32:35.548Z,94.79
2016-11-25T07:33:51.125Z,94.13
2016-11-25T07:35:05.799Z,93.75
2016-11-25T07:36:17.745Z,93.32
2016-11-25T07:37:30.945Z,93.04
2016-11-25T07:38:46.051Z,93.32
2016-11-25T07:40:02.272Z,92.19
2016-11-25T07:41:15.876Z,92.66
2016-11-25T07:42:31.609Z,93.23
2016-11-25T07:43:47.505Z,93.32
2016-11-25T07:45:02.150Z,93.13
2016-11-25T07:46:16.925Z,92.24
2016-11-25T07:47:31.368Z,90.67
2016-11-25T07:48:46.762Z,89.11
2016-11-25T07:50:01.171Z,86.35
2016-11-25T07:51:14.565Z,84.74
2016-11-25T07:52:28.153Z,82.98
2016-11-25T07:53:42.842Z,80.8
2016-11-25T07:54:57.900Z,78.66
2016-11-25T07:56:13.238Z,76.1
2016-11-25T07:57:27.790Z,74.77
2016-11-25T07:58:43.217Z,74.39
2016-11-25T07:59:57.114Z,73.38
2016-11-25T08:01:10.050Z,71.96
2016-11-25T08:02:25.220Z,71.86
2016-11-25T08:03:40.111Z,69.78
2016-11-25T08:04:53.842Z,69.78
2016-11-25T08:06:07.314Z,68.86
2016-11-25T08:07:21.522Z,67.91
2016-11-25T08:08:36.384Z,66.39
2016-11-25T08:09:52.768Z,65.28
2016-11-25T08:11:05.879Z,64.62
2016-11-25T08:12:21.527Z,63.86
2016-11-25T08:13:36.163Z,63.2
2016-11-25T08:14:50.845Z,62.27
2016-11-25T08:16:07.017Z,62.37
2016-11-25T08:17:20.565Z,61.42
2016-11-25T08:18:35.653Z,61.16
2016-11-25T08:19:50.354Z,59.93
2016-11-25T08:21:05.612Z,58.03
2016-11-25T08:22:17.870Z,57.96
2016-11-25T08:23:33.337Z,57.39
2016-11-25T08:24:47.785Z,56.34
2016-11-25T08:26:03.697Z,55.61
2016-11-25T08:27:16.446Z,54.47
2016-11-25T08:28:32.801Z,53.8
2016-11-25T08:29:46.377Z,53.52
2016-11-25T08:31:01.483Z,53.32
2016-11-25T08:32:15.390Z,53.8
2016-11-25T08:33:28.846Z,52.49
2016-11-25T08:34:43.659Z,51.82
2016-11-25T08:35:58.942Z,51.92
2016-11-25T08:37:14.873Z,51.25
2016-11-25T08:38:28.112Z,51.64
2016-11-25T08:39:42.097Z,52.01
2016-11-25T08:40:55.195Z,51.16
2016-11-25T08:42:10.277Z,50.59
2016-11-25T08:43:25.222Z,50.11
2016-11-25T08:44:38.920Z,49.63
2016-11-25T08:45:52.612Z,49.66
2016-11-25T08:47:08.959Z,49.28
2016-11-25T08:48:23.933Z,48.71
2016-11-25T08:49:38.896Z,48.9
2016-11-25T08:50:53.597Z,49.56
2016-11-25T08:52:09.237Z,48.8
2016-11-25T08:53:25.721Z,48.32
2016-11-25T08:54:40.658Z,49.47
2016-11-25T08:55:59.649Z,48.71
2016-11-25T08:57:15.829Z,48.71
2016-11-25T08:58:29.088Z,48.78
2016-11-25T08:59:45.442Z,49.26
2016-11-25T09:01:01.778Z,49.06
2016-11-25T09:02:16.420Z,48.68
2016-11-25T09:03:32.002Z,48.78
2016-11-25T09:04:46.856Z,48.87
2016-11-25T09:06:03.441Z,49.63
2016-11-25T09:07:18.425Z,49.73
2016-11-25T09:08:30.461Z,50.18
2016-11-25T09:09:44.048Z,49.63
2016-11-25T09:10:59.903Z,49.54
2016-11-25T09:12:15.447Z,48.78
2016-11-25T09:13:31.818Z,49.44
2016-11-25T09:14:46.186Z,48.68
2016-11-25T09:16:01.966Z,48.11
2016-11-25T09:17:15.781Z,48.3
2016-11-25T09:18:30.556Z,47.37
2016-11-25T09:19:45.092Z,47.08
2016-11-25T09:21:01.456Z,46.04
2016-11-25T09:22:17.794Z,45.94
2016-11-25T09:23:32.725Z,47.18
2016-11-25T09:24:49.784Z,46.42
2016-11-25T09:26:06.098Z,45.29
2016-11-25T09:27:22.872Z,44.06
2016-11-25T09:28:39.061Z,43.87
2016-11-25T09:29:54.992Z,43.58
2016-11-25T09:31:10.502Z,43.13
2016-11-25T09:32:26.812Z,43.22
2016-11-25T09:33:42.155Z,42.84
2016-11-25T09:34:56.549Z,42.93
2016-11-25T09:36:13.585Z,42.91
2016-11-25T09:37:28.780Z,43.49
2016-11-25T09:38:43.090Z,43.68
2016-11-25T09:39:58.039Z,43.39
2016-11-25T09:41:13.999Z,43.68
2016-11-25T09:42:27.823Z,43.1
2016-11-25T09:43:41.540Z,42.17
2016-11-25T09:44:55.842Z,41.98
2016-11-25T09:46:10.149Z,41.69
2016-11-25T09:47:24.349Z,41.6
2016-11-25T09:48:40.574Z,42.44
2016-11-25T09:49:57.006Z,43.01
2016-11-25T09:51:11.467Z,42.15
2016-11-25T09:52:26.145Z,41.86
2016-11-25T09:53:40.998Z,43.01
2016-11-25T09:54:57.759Z,42.44
2016-11-25T09:56:13.448Z,42.72
2016-11-25T09:57:30.427Z,41.58
2016-11-25T09:58:45.873Z,41.58
2016-11-25T10:00:00.328Z,41.58
2016-11-25T10:01:15.328Z,41.96
2016-11-25T10:02:30.980Z,42.05
2016-11-25T10:03:46.088Z,42.15
2016-11-25T10:05:02.412Z,42.24
2016-11-25T10:06:16.406Z,41.96
2016-11-25T10:07:30.061Z,41.48
2016-11-25T10:08:44.451Z,40.72
2016-11-25T10:09:59.169Z,40.91
2016-11-25T10:11:15.889Z,41.67
2016-11-25T10:12:32.754Z,41.29
2016-11-25T10:13:44.820Z,41.67
2016-11-25T10:15:00.740Z,41.67
2016-11-25T10:16:16.841Z,41.12
2016-11-25T10:17:32.415Z,40.55
2016-11-25T10:18:47.557Z,40.45
2016-11-25T10:20:00.719Z,39.78
2016-11-25T10:21:15.573Z,39.78
2016-11-25T10:22:30.226Z,40.64
2016-11-25T10:23:44.564Z,41
2016-11-25T10:24:59.697Z,40.91
2016-11-25T10:26:14.467Z,41.29
2016-11-25T10:27:29.963Z,41.67
2016-11-25T10:28:44.449Z,42.89
2016-11-25T10:29:59.327Z,42.8
2016-11-25T10:31:12.162Z,42.51
2016-11-25T10:32:28.596Z,42.51
2016-11-25T10:33:43.281Z,42.22
2016-11-25T10:34:58.508Z,41.86
2016-11-25T10:36:12.537Z,42.34
2016-11-25T10:37:27.421Z,42.7
2016-11-25T10:38:42.106Z,43.27
2016-11-25T10:39:56.069Z,43.63
2016-11-25T10:41:11.098Z,44.39
2016-11-25T10:42:25.943Z,44.75
2016-11-25T10:43:42.561Z,45.99
2016-11-25T10:44:57.245Z,46.18
2016-11-25T10:46:10.250Z,46.56
2016-11-25T10:47:26.248Z,47.2
2016-11-25T10:48:42.504Z,47.68
2016-11-25T10:49:58.832Z,48.16
2016-11-25T10:51:14.741Z,49.08
2016-11-25T10:52:31.630Z,49.65
2016-11-25T10:53:44.737Z,50.7
2016-11-25T10:55:01.839Z,50.96
2016-11-25T10:56:17.110Z,51.25
2016-11-25T10:57:33.560Z,51.72
2016-11-25T10:58:48.759Z,50.96
2016-11-25T11:00:05.341Z,51.15
2016-11-25T11:01:21.797Z,51.15
2016-11-25T11:02:37.851Z,51.25
2016-11-25T11:03:52.556Z,52.2
2016-11-25T11:05:08.771Z,52.36
2016-11-25T11:06:22.012Z,52.74
2016-11-25T11:07:37.903Z,52.74
2016-11-25T11:08:53.433Z,53.59
2016-11-25T11:10:09.488Z,53.5
2016-11-25T11:11:25.929Z,53.69
2016-11-25T11:12:42.661Z,53.22
2016-11-25T11:13:58.376Z,53.31
2016-11-25T11:15:13.836Z,53.03
2016-11-25T11:16:28.214Z,52.93
2016-11-25T11:17:44.822Z,52.64
2016-11-25T11:19:00.010Z,53.31
2016-11-25T11:20:15.542Z,52.93
2016-11-25T11:21:31.237Z,52.26
2016-11-25T11:22:46.361Z,51.89
2016-11-25T11:24:02.444Z,51.98
2016-11-25T11:25:18.604Z,52.26
2016-11-25T11:26:31.737Z,52.36
2016-11-25T11:27:46.633Z,52.08
2016-11-25T11:28:59.689Z,52.26
2016-11-25T11:30:14.120Z,52.55
2016-11-25T11:31:29.811Z,52.84
2016-11-25T11:32:45.506Z,52.74
2016-11-25T11:34:01.828Z,51.79
2016-11-25T11:35:15.145Z,52.17
2016-11-25T11:36:29.435Z,52.05
2016-11-25T11:37:43.507Z,52.36
2016-11-25T11:39:00.595Z,52.45
2016-11-25T11:40:15.628Z,52.36
2016-11-25T11:41:31.541Z,52.84
2016-11-25T11:42:47.333Z,51.98
2016-11-25T11:44:02.252Z,52.08
2016-11-25T11:45:14.523Z,52.36
2016-11-25T11:46:31.058Z,51.6
2016-11-25T11:47:47.362Z,51.7
2016-11-25T11:49:01.634Z,51.22
2016-11-25T11:50:14.647Z,51.03
2016-11-25T11:51:31.088Z,51.22
2016-11-25T11:52:44.424Z,51.22
2016-11-25T11:53:57.745Z,51.22
2016-11-25T11:55:12.667Z,51.03
2016-11-25T11:56:28.849Z,51.6
2016-11-25T11:57:44.535Z,51.98
2016-11-25T11:58:59.074Z,52.08
2016-11-25T12:00:15.553Z,52.45
2016-11-25T12:01:30.146Z,51.98
2016-11-25T12:02:45.337Z,52.64
2016-11-25T12:04:01.801Z,52.64
2016-11-25T12:05:17.372Z,52.55
2016-11-25T12:06:34.555Z,51.6
2016-11-25T12:07:51.274Z,51.22
2016-11-25T12:09:06.601Z,51.22
2016-11-25T12:10:21.666Z,50.65
2016-11-25T12:11:36.559Z,50.65
2016-11-25T12:12:51.694Z,51.12
2016-11-25T12:14:06.404Z,51.41
2016-11-25T12:15:23.327Z,51.41
2016-11-25T12:16:38.448Z,51.79
2016-11-25T12:17:53.151Z,51.79
2016-11-25T12:19:09.481Z,51.89
2016-11-25T12:20:22.710Z,52.08
2016-11-25T12:21:35.837Z,51.6
2016-11-25T12:22:50.748Z,51.6
2016-11-25T12:24:06.666Z,51.41
2016-11-25T12:25:21.544Z,51.98
2016-11-25T12:26:37.965Z,51.31
2016-11-25T12:27:52.805Z,51.12
2016-11-25T12:29:08.144Z,51.22
2016-11-25T12:30:21.352Z,50.65
2016-11-25T12:31:36.481Z,50.37
2016-11-25T12:32:52.913Z,50.65
2016-11-25T12:34:09.656Z,51.12
2016-11-25T12:35:24.571Z,51.12
2016-11-25T12:36:39.094Z,51.31
2016-11-25T12:37:52.237Z,50.74
2016-11-25T12:39:05.412Z,50.84
2016-11-25T12:40:22.266Z,50.84
2016-11-25T12:41:38.056Z,50.84
2016-11-25T12:42:54.454Z,50.65
2016-11-25T12:44:11.360Z,50.74
2016-11-25T12:45:27.261Z,50.27
2016-11-25T12:46:43.850Z,50.56
2016-11-25T12:47:58.612Z,50.65
2016-11-25T12:49:15.597Z,50.46
2016-11-25T12:50:30.939Z,50.56
2016-11-25T12:51:44.997Z,50.56
2016-11-25T12:52:59.455Z,50.18
2016-11-25T12:54:11.354Z,50.18
2016-11-25T12:55:24.819Z,49.79
2016-11-25T12:56:41.128Z,50.37
2016-11-25T12:57:58.451Z,49.6
2016-11-25T12:59:13.966Z,49.89
2016-11-25T13:00:28.007Z,49.7
2016-11-25T13:01:43.972Z,50.18
2016-11-25T13:02:58.675Z,50.74
2016-11-25T13:04:15.276Z,50.93
2016-11-25T13:05:30.619Z,50.18
2016-11-25T13:06:45.330Z,49.82
2016-11-25T13:08:01.393Z,49.41
2016-11-25T13:09:17.892Z,49.51
2016-11-25T13:10:30.768Z,49.44
2016-11-25T13:11:43.918Z,49.7
2016-11-25T13:12:58.678Z,50.46
2016-11-25T13:14:13.884Z,50.1
2016-11-25T13:15:27.705Z,50.1
2016-11-25T13:16:41.382Z,50.2
2016-11-25T13:17:57.505Z,50.48
2016-11-25T13:19:14.009Z,50.18
2016-11-25T13:20:30.946Z,50.46
2016-11-25T13:21:44.497Z,50.74
2016-11-25T13:22:58.924Z,50.27
2016-11-25T13:24:15.323Z,50.18
2016-11-25T13:25:30.256Z,50.58
2016-11-25T13:26:46.982Z,50.77
2016-11-25T13:28:01.394Z,50.27
2016-11-25T13:29:15.303Z,49.98
2016-11-25T13:30:28.750Z,49.79
2016-11-25T13:31:44.440Z,49.6
2016-11-25T13:32:59.692Z,49.79
2016-11-25T13:34:14.698Z,49.79
2016-11-25T13:35:29.467Z,50.27
2016-11-25T13:36:42.737Z,50.65
2016-11-25T13:37:59.633Z,50.37
2016-11-25T13:39:13.057Z,50.37
2016-11-25T13:40:29.216Z,51.03
2016-11-25T13:41:43.433Z,50.84
2016-11-25T13:42:58.603Z,51.22
2016-11-25T13:44:11.918Z,51.03
2016-11-25T13:45:26.190Z,50.84
2016-11-25T13:46:42.908Z,51.7
2016-11-25T13:47:57.759Z,52.08
2016-11-25T13:49:12.294Z,52.36
2016-11-25T13:50:28.193Z,52.45
2016-11-25T13:51:44.656Z,53.12
2016-11-25T13:53:00.203Z,53.5
2016-11-25T13:54:16.241Z,53.31
2016-11-25T13:55:31.033Z,53.59
2016-11-25T13:56:44.266Z,54.07
2016-11-25T13:57:56.540Z,53.97
2016-11-25T13:59:09.695Z,54.17
2016-11-25T14:00:25.499Z,54.07
2016-11-25T14:01:37.367Z,53.97
2016-11-25T14:02:53.373Z,54.26
2016-11-25T14:04:06.671Z,54.36
2016-11-25T14:05:21.173Z,55.11
2016-11-25T14:06:37.218Z,54.93
2016-11-25T14:07:49.366Z,54.9
2016-11-25T14:09:06.375Z,54.9
2016-11-25T14:10:21.265Z,55.37
2016-11-25T14:11:34.853Z,55.18
2016-11-25T14:12:50.575Z,55.85
2016-11-25T14:14:05.641Z,56.13
2016-11-25T14:15:18.744Z,56.04
2016-11-25T14:16:30.265Z,56.7
2016-11-25T14:17:46.322Z,57.18
2016-11-25T14:19:01.146Z,57.18
2016-11-25T14:20:16.161Z,57.18
2016-11-25T14:21:29.701Z,57.56
2016-11-25T14:22:44.124Z,58.03
2016-11-25T14:23:59.130Z,58.32
2016-11-25T14:25:12.562Z,58.22
2016-11-25T14:26:26.172Z,58.89
2016-11-25T14:27:40.073Z,59.65
2016-11-25T14:28:55.423Z,59.65
2016-11-25T14:30:11.564Z,60.03
2016-11-25T14:31:26.428Z,60.5
2016-11-25T14:32:42.887Z,61.17
2016-11-25T14:33:59.752Z,61.33
2016-11-25T14:35:14.767Z,61.61
2016-11-25T14:36:30.850Z,61.61
2016-11-25T14:37:47.977Z,62.08
2016-11-25T14:39:02.785Z,62.94
2016-11-25T14:40:18.675Z,63.04
2016-11-25T14:41:33.022Z,63.32
2016-11-25T14:42:50.328Z,63.13
2016-11-25T14:44:01.931Z,63.13
2016-11-25T14:45:18.631Z,63.13
2016-11-25T14:46:34.574Z,63.79
2016-11-25T14:47:50.800Z,63.7
2016-11-25T14:49:06.913Z,63.79
2016-11-25T14:50:22.562Z,64.37
2016-11-25T14:51:35.876Z,64.37
2016-11-25T14:52:50.749Z,64.65
2016-11-25T14:54:06.842Z,64.65
2016-11-25T14:55:22.882Z,65.66
2016-11-25T14:56:37.327Z,65.41
2016-11-25T14:57:54.466Z,65.28
2016-11-25T14:59:10.780Z,65.19
2016-11-25T15:00:25.448Z,65.37
2016-11-25T15:01:40.487Z,65.66
2016-11-25T15:02:55.754Z,66.14
2016-11-25T15:04:12.233Z,66.14
2016-11-25T15:05:27.156Z,66.23
2016-11-25T15:06:42.037Z,66.33
2016-11-25T15:07:57.291Z,66.89
2016-11-25T15:09:10.688Z,67.46
2016-11-25T15:10:26.947Z,68.04
2016-11-25T15:11:43.483Z,67.94
2016-11-25T15:12:58.438Z,67.85
2016-11-25T15:14:14.628Z,68.13
2016-11-25T15:15:30.420Z,68.79
2016-11-25T15:16:46.553Z,68.66
2016-11-25T15:18:01.481Z,68.76
2016-11-25T15:19:15.543Z,68.95
2016-11-25T15:20:30.164Z,69.71
2016-11-25T15:21:45.200Z,69.61
2016-11-25T15:23:01.331Z,69.42
2016-11-25T15:24:16.627Z,69.9
2016-11-25T15:25:29.782Z,69.9
2016-11-25T15:26:46.110Z,70.18
2016-11-25T15:27:58.035Z,69.8
2016-11-25T15:29:14.791Z,70.37
2016-11-25T15:30:30.273Z,70.84
2016-11-25T15:31:44.072Z,70.56
2016-11-25T15:32:58.998Z,71.13
2016-11-25T15:34:13.599Z,71.13
2016-11-25T15:35:29.648Z,71.13
2016-11-25T15:36:44.266Z,71.09
2016-11-25T15:38:00.678Z,71.95
2016-11-25T15:39:15.959Z,71.85
2016-11-25T15:40:31.121Z,72.04
2016-11-25T15:41:47.468Z,72.14
2016-11-25T15:43:03.528Z,72.23
2016-11-25T15:44:16.903Z,72.52
2016-11-25T15:45:31.866Z,72.61
2016-11-25T15:46:45.346Z,72.61
2016-11-25T15:47:59.877Z,73.08
2016-11-25T15:49:13.787Z,73.27
2016-11-25T15:50:26.773Z,73.46
2016-11-25T15:51:40.802Z,73.75
2016-11-25T15:52:52.978Z,73.65
2016-11-25T15:54:09.261Z,74.13
2016-11-25T15:55:24.027Z,74.32
2016-11-25T15:56:38.016Z,74.69
2016-11-25T15:57:54.226Z,74.88
2016-11-25T15:59:08.696Z,74.56
2016-11-25T16:00:21.968Z,75.04
2016-11-25T16:01:37.003Z,75.23
2016-11-25T16:02:50.555Z,75.51
2016-11-25T16:04:06.289Z,75.23
2016-11-25T16:05:21.920Z,75.32
2016-11-25T16:06:36.009Z,75.42
2016-11-25T16:07:50.721Z,75.6
2016-11-25T16:09:05.584Z,75.79